Time;durP1;ratioP1;P1;durP2;ratioP2;P2;SDS_P1;SDS_P2;PMS_P1;PMS_P2;Temp;Humidity;BMP_temperature;BMP_pressure;BME280_temperature;BME280_humidity;BME280_pressure;Samples;Min_cycle;Max_cycle;Signal;HPM_P1;HPM_P2
2022/12/10 00:00:11;;;;;;;47.72;27.52;;;;;;;-0.66;100.00;100759.53;5156210;29;20046;-69
2022/12/10 00:02:42;;;;;;;45.17;27.30;;;;;;;-0.63;100.00;100763.72;5156637;28;20551;-69
2022/12/10 00:05:13;;;;;;;40.75;26.25;;;;;;;-0.66;100.00;100764.69;5153988;29;20039;-69
2022/12/10 00:07:45;;;;;;;47.08;27.95;;;;;;;-0.64;100.00;100764.63;5155743;29;20027;-69
2022/12/10 00:10:16;;;;;;;45.35;26.83;;;;;;;-0.66;100.00;100769.81;5156277;28;20058;-69
2022/12/10 00:12:47;;;;;;;44.35;27.23;;;;;;;-0.65;100.00;100773.22;5156474;28;20015;-69
2022/12/10 00:15:19;;;;;;;45.53;26.33;;;;;;;-0.68;100.00;100770.75;5154969;29;20205;-69
2022/12/10 00:17:50;;;;;;;47.08;27.75;;;;;;;-0.66;100.00;100771.56;5156067;29;20027;-68
2022/12/10 00:20:21;;;;;;;46.28;27.40;;;;;;;-0.70;100.00;100772.56;5156506;29;20046;-68
2022/12/10 00:22:52;;;;;;;53.63;28.95;;;;;;;-0.67;100.00;100783.59;5153530;28;20377;-69
2022/12/10 00:25:24;;;;;;;50.58;28.58;;;;;;;-0.64;100.00;100780.06;5155985;29;20332;-68
2022/12/10 00:27:55;;;;;;;49.53;28.08;;;;;;;-0.67;100.00;100775.88;5156426;29;20384;-68
2022/12/10 00:30:26;;;;;;;48.47;27.60;;;;;;;-0.65;100.00;100779.19;5151216;29;20499;-69
2022/12/10 00:32:57;;;;;;;47.15;28.48;;;;;;;-0.68;100.00;100781.91;5155719;28;20106;-69
2022/12/10 00:35:29;;;;;;;44.72;26.95;;;;;;;-0.64;100.00;100786.06;5154540;29;20038;-69
2022/12/10 00:38:00;;;;;;;46.47;27.48;;;;;;;-0.66;100.00;100785.25;5154221;28;20023;-69
2022/12/10 00:40:32;;;;;;;45.47;28.15;;;;;;;-0.64;100.00;100786.06;5151495;29;20031;-69
2022/12/10 00:43:04;;;;;;;51.88;28.77;;;;;;;-0.63;100.00;100789.44;5138204;29;20029;-69
2022/12/10 00:45:35;;;;;;;44.22;27.02;;;;;;;-0.67;100.00;100787.91;5155007;29;20413;-68
2022/12/10 00:48:06;;;;;;;49.45;27.65;;;;;;;-0.68;100.00;100791.34;5155131;29;20023;-69
2022/12/10 00:50:37;;;;;;;49.78;28.83;;;;;;;-0.70;100.00;100786.28;5135369;29;20031;-69
2022/12/10 00:53:09;;;;;;;46.40;27.52;;;;;;;-0.68;100.00;100773.34;5154183;28;20035;-69
2022/12/10 00:55:40;;;;;;;46.05;27.80;;;;;;;-0.73;100.00;100765.81;5152359;29;20035;-69
2022/12/10 00:58:11;;;;;;;47.13;27.40;;;;;;;-0.75;100.00;100765.88;5153476;29;20387;-69
2022/12/10 01:00:42;;;;;;;45.90;26.20;;;;;;;-0.79;100.00;100773.78;5152048;28;20468;-69
2022/12/10 01:03:15;;;;;;;45.35;28.48;;;;;;;-0.80;100.00;100762.63;5154670;28;20501;-69
2022/12/10 01:05:46;;;;;;;50.35;28.00;;;;;;;-0.83;100.00;100764.50;5152099;28;20039;-68
2022/12/10 01:08:17;;;;;;;45.75;27.10;;;;;;;-0.84;100.00;100766.22;5154184;29;20033;-69
2022/12/10 01:10:53;;;;;;;46.25;29.40;;;;;;;-0.72;100.00;100767.47;5154032;29;20029;-69
2022/12/10 01:13:24;;;;;;;50.30;28.48;;;;;;;-0.83;100.00;100759.38;5152397;28;20412;-69
2022/12/10 01:15:55;;;;;;;51.70;30.38;;;;;;;-0.82;100.00;100771.31;5153089;29;20034;-69
2022/12/10 01:18:27;;;;;;;49.85;29.67;;;;;;;-0.86;100.00;100774.91;5154976;29;20031;-69
2022/12/10 01:21:03;;;;;;;39.78;27.17;;;;;;;-0.76;100.00;100777.06;5155204;29;20461;-69
2022/12/10 01:23:36;;;;;;;47.75;28.75;;;;;;;-0.85;100.00;100772.28;5153814;28;20615;-69
2022/12/10 01:26:11;;;;;;;47.75;27.65;;;;;;;-0.82;100.00;100766.19;5155682;29;20373;-69
2022/12/10 01:28:43;;;;;;;47.92;29.15;;;;;;;-0.90;100.00;100776.75;5155164;29;20074;-69
2022/12/10 01:31:23;;;;;;;50.47;29.65;;;;;;;-0.78;100.00;100784.00;5152037;29;20045;-69
2022/12/10 01:33:55;;;;;;;45.85;27.90;;;;;;;-0.90;100.00;100792.19;5153451;28;20042;-69
2022/12/10 01:36:28;;;;;;;46.97;29.40;;;;;;;-0.84;100.00;100791.94;5154145;29;20481;-69
2022/12/10 01:39:00;;;;;;;;;;;;;;;-0.35;100.00;100794.31;5153350;29;20030;-69
2022/12/10 01:41:34;;;;;;;48.08;27.40;;;;;;;-0.79;100.00;100795.19;5154231;29;19922;-69
2022/12/10 01:44:08;;;;;;;48.30;28.23;;;;;;;-0.77;100.00;100808.81;5154764;28;20027;-69
2022/12/10 01:46:42;;;;;;;46.50;29.40;;;;;;;-0.80;100.00;100808.94;5154078;29;20531;-69
2022/12/10 01:49:17;;;;;;;52.15;30.67;;;;;;;-0.81;100.00;100804.69;5152733;29;20037;-69
2022/12/10 01:51:52;;;;;;;55.17;30.55;;;;;;;-0.81;100.00;100807.25;5155024;28;20353;-69
2022/12/10 01:54:28;;;;;;;53.47;30.00;;;;;;;-0.84;100.00;100807.38;5154846;29;20034;-68
2022/12/10 01:57:07;;;;;;;64.95;33.53;;;;;;;-0.81;100.00;100803.84;5151261;29;20041;-69
2022/12/10 01:59:39;;;;;;;62.97;31.35;;;;;;;-0.92;100.00;100800.84;5143573;29;20043;-69
2022/12/10 02:02:21;;;;;;;61.42;31.45;;;;;;;-0.78;100.00;100808.88;5154280;28;20049;-69
2022/12/10 02:05:13;;;;;;;56.80;29.83;;;;;;;-0.74;100.00;100805.31;5152209;29;20045;-69
2022/12/10 02:07:44;;;;;;;81.57;30.90;;;;;;;-0.94;100.00;100800.09;5135807;29;20042;-69
2022/12/10 02:10:46;;;;;;;60.30;30.43;;;;;;;-0.76;100.00;100800.22;5153939;29;20102;-69
2022/12/10 02:13:24;;;;;;;73.25;31.08;;;;;;;-0.94;100.00;100802.66;5152531;28;20575;-69
2022/12/10 02:16:08;;;;;;;56.25;31.92;;;;;;;-0.85;100.00;100792.84;5152800;29;20078;-69
2022/12/10 02:18:47;;;;;;;63.65;31.70;;;;;;;-0.83;100.00;100796.22;5154011;29;20699;-69
2022/12/10 02:21:24;;;;;;;60.70;32.22;;;;;;;-0.81;100.00;100807.25;5152157;29;20031;-69
2022/12/10 02:24:00;;;;;;;54.25;32.42;;;;;;;-0.79;100.00;100802.06;5152525;28;20290;-69
2022/12/10 02:26:47;;;;;;;58.40;31.00;;;;;;;-0.77;100.00;100801.09;5150712;29;20043;-69
2022/12/10 02:29:23;;;;;;;53.08;32.35;;;;;;;-0.79;100.00;100796.94;5135111;29;20046;-68
2022/12/10 02:32:09;;;;;;;53.28;31.17;;;;;;;-0.77;100.00;100807.97;5151216;28;20473;-69
2022/12/10 02:34:43;;;;;;;53.55;31.98;;;;;;;-0.68;100.00;100794.78;5122170;29;20074;-70
2022/12/10 02:37:20;;;;;;;55.40;32.72;;;;;;;-0.62;100.00;100802.25;5150631;29;20023;-70
2022/12/10 02:39:55;;;;;;;55.38;31.08;;;;;;;-0.61;100.00;100797.94;5151478;29;20023;-70
2022/12/10 02:42:30;;;;;;;57.78;32.35;;;;;;;-0.53;100.00;100799.31;5150180;29;20086;-70
2022/12/10 02:45:02;;;;;;;55.50;33.20;;;;;;;-0.57;100.00;100797.78;5150705;29;20031;-70
2022/12/10 02:47:35;;;;;;;56.58;33.22;;;;;;;-0.54;100.00;100781.34;5148758;29;20027;-70
2022/12/10 02:50:09;;;;;;;56.15;32.55;;;;;;;-0.43;100.00;100784.34;5151177;29;20080;-70
2022/12/10 02:52:40;;;;;;;53.85;33.30;;;;;;;-0.48;100.00;100781.13;5148532;29;20031;-70
2022/12/10 02:55:13;;;;;;;55.72;32.78;;;;;;;-0.41;100.00;100782.56;5151499;28;20035;-70
2022/12/10 02:57:53;;;;;;;58.50;34.50;;;;;;;-0.26;100.00;100784.50;5150292;29;20038;-70
2022/12/10 03:00:24;;;;;;;58.05;33.00;;;;;;;-0.32;100.00;100789.91;5147442;29;20066;-70
2022/12/10 03:03:11;;;;;;;52.17;32.35;;;;;;;-0.20;100.00;100798.84;5151276;29;20055;-70
2022/12/10 03:06:32;;;;;;;59.55;33.30;;;;;;;-0.02;100.00;100794.69;5149277;29;20126;-69
2022/12/10 03:09:09;;;;;;;56.40;31.67;;;;;;;-0.22;100.00;100802.41;5034928;29;20551;-70
2022/12/10 03:11:43;;;;;;;56.65;33.33;;;;;;;-0.29;100.00;100791.53;5035411;29;20068;-69
2022/12/10 03:14:25;;;;;;;60.78;32.72;;;;;;;-0.18;100.00;100803.97;5113416;29;20036;-69
2022/12/10 03:16:59;;;;;;;55.47;32.75;;;;;;;-0.27;100.00;100800.84;5147708;29;20521;-70
2022/12/10 03:19:39;;;;;;;56.80;32.38;;;;;;;-0.15;100.00;100803.81;5148871;29;20413;-70
2022/12/10 03:22:12;;;;;;;57.83;32.75;;;;;;;-0.24;100.00;100794.72;5151511;28;20031;-70
2022/12/10 03:24:44;;;;;;;61.10;33.47;;;;;;;-0.30;100.00;100793.25;5149705;28;20097;-70
2022/12/10 03:27:18;;;;;;;54.63;31.95;;;;;;;-0.17;100.00;100797.91;5154318;29;20137;-70
2022/12/10 03:29:54;;;;;;;58.67;31.85;;;;;;;-0.21;100.00;100802.34;5152555;29;20019;-70
2022/12/10 03:32:28;;;;;;;62.72;33.22;;;;;;;-0.38;100.00;100790.16;5150066;29;20086;-70
2022/12/10 03:35:01;;;;;;;64.47;34.00;;;;;;;-0.40;100.00;100798.84;5156556;29;20102;-70
2022/12/10 03:37:34;;;;;;;68.38;33.75;;;;;;;-0.42;100.00;100793.72;5157326;29;20054;-70
2022/12/10 03:40:07;;;;;;;64.60;33.03;;;;;;;-0.37;100.00;100803.88;5155950;29;20485;-70
2022/12/10 03:42:38;;;;;;;59.50;34.97;;;;;;;-0.34;100.00;100811.44;5157036;28;20555;-70
2022/12/10 03:45:10;;;;;;;63.00;33.78;;;;;;;-0.32;100.00;100805.34;5138704;29;20035;-70
2022/12/10 03:47:42;;;;;;;54.28;31.48;;;;;;;-0.31;100.00;100807.00;5155889;29;20520;-70
2022/12/10 03:50:13;;;;;;;61.30;34.08;;;;;;;-0.31;100.00;100813.91;5156877;28;20054;-70
2022/12/10 03:52:44;;;;;;;62.80;33.53;;;;;;;-0.33;100.00;100802.84;5156937;28;20027;-69
2022/12/10 03:55:15;;;;;;;64.60;34.58;;;;;;;-0.32;100.00;100809.66;5155320;29;20031;-70
2022/12/10 03:57:48;;;;;;;63.17;34.30;;;;;;;-0.35;100.00;100810.59;5154905;29;20390;-70
2022/12/10 04:00:19;;;;;;;62.50;34.90;;;;;;;-0.34;100.00;100804.59;5157054;29;20019;-69
2022/12/10 04:02:50;;;;;;;76.65;34.80;;;;;;;-0.32;100.00;100817.38;5156154;28;20023;-70
2022/12/10 04:05:22;;;;;;;58.15;33.25;;;;;;;-0.27;100.00;100818.84;5156336;29;20057;-69
2022/12/10 04:07:53;;;;;;;61.22;33.80;;;;;;;-0.32;100.00;100813.06;5156678;29;20019;-69
2022/12/10 04:10:24;;;;;;;81.95;34.38;;;;;;;-0.33;100.00;100816.53;5156057;29;20105;-69
2022/12/10 04:18:35;;;;;;;64.95;33.17;;;;;;;-0.32;100.00;100815.63;5156265;28;20062;-69
2022/12/10 04:26:52;;;;;;;60.35;34.05;;;;;;;-0.21;100.00;100811.81;5154925;29;20047;-69
2022/12/10 04:29:47;;;;;;;69.95;34.13;;;;;;;-0.26;100.00;100796.53;5156527;29;20070;-69
2022/12/10 04:32:20;;;;;;;63.55;31.65;;;;;;;-0.22;100.00;100810.13;5151621;28;20031;-69
2022/12/10 04:34:51;;;;;;;67.10;31.70;;;;;;;-0.24;100.00;100815.31;5155299;28;20102;-69
2022/12/10 04:37:23;;;;;;;64.40;34.65;;;;;;;-0.26;100.00;100815.41;5155971;29;20486;-69
2022/12/10 04:39:54;;;;;;;68.43;35.20;;;;;;;-0.20;100.00;100826.34;5153066;29;20035;-69
2022/12/10 04:42:25;;;;;;;64.78;34.22;;;;;;;-0.21;100.00;100822.94;5155534;28;20027;-69
2022/12/10 04:44:57;;;;;;;68.18;35.33;;;;;;;-0.18;100.00;100827.13;5155689;28;20082;-69
2022/12/10 04:47:28;;;;;;;67.32;35.42;;;;;;;-0.17;100.00;100827.06;5156135;29;20027;-69
2022/12/10 04:49:59;;;;;;;64.07;33.40;;;;;;;-0.12;100.00;100821.72;5153547;29;20087;-69
2022/12/10 04:52:30;;;;;;;64.80;33.42;;;;;;;-0.10;100.00;100825.06;5155569;28;20043;-69
2022/12/10 04:55:02;;;;;;;69.53;35.80;;;;;;;-0.15;100.00;100829.56;5154904;29;20066;-70
2022/12/10 04:57:33;;;;;;;79.47;34.08;;;;;;;-0.21;100.00;100834.97;5156008;29;20023;-69
2022/12/10 05:00:05;;;;;;;67.68;35.50;;;;;;;-0.24;100.00;100833.34;5154337;29;20476;-69
2022/12/10 05:02:36;;;;;;;66.88;34.28;;;;;;;-0.34;100.00;100820.03;5155573;28;20039;-69
2022/12/10 05:05:08;;;;;;;65.20;33.53;;;;;;;-0.21;100.00;100830.66;5138305;29;20028;-69
2022/12/10 05:07:39;;;;;;;62.72;33.20;;;;;;;-0.25;100.00;100829.94;5153692;29;20117;-69
2022/12/10 05:10:10;;;;;;;68.60;34.58;;;;;;;-0.23;100.00;100831.59;5153716;28;20374;-69
2022/12/10 05:12:41;;;;;;;72.20;34.15;;;;;;;-0.24;100.00;100830.78;5155098;28;20489;-69
2022/12/10 05:15:13;;;;;;;68.65;34.88;;;;;;;-0.24;100.00;100820.47;5153415;29;20035;-69
2022/12/10 05:17:44;;;;;;;62.17;32.50;;;;;;;-0.30;100.00;100813.03;5155106;29;20382;-69
2022/12/10 05:20:15;;;;;;;64.10;34.65;;;;;;;-0.13;100.00;100835.50;5154631;29;20031;-69
2022/12/10 05:25:52;;;;;;;62.05;32.22;;;;;;;-0.12;100.00;100838.00;5154749;29;20086;-69
2022/12/10 05:28:24;;;;;;;65.25;33.90;;;;;;;-0.10;100.00;100840.53;5153331;29;20109;-69
2022/12/10 05:30:56;;;;;;;65.53;34.33;;;;;;;-0.15;100.00;100837.28;5150361;29;20174;-69
2022/12/10 05:33:28;;;;;;;71.68;35.67;;;;;;;-0.19;100.00;100834.03;5153869;28;20043;-69
2022/12/10 05:36:01;;;;;;;67.05;34.72;;;;;;;-0.15;100.00;100833.00;5154249;29;20042;-69
2022/12/10 05:38:33;;;;;;;66.38;34.50;;;;;;;-0.16;100.00;100841.59;5154125;29;20055;-69
2022/12/10 05:41:08;;;;;;;62.47;32.50;;;;;;;-0.09;100.00;100832.72;5152614;29;20023;-69
2022/12/10 05:43:40;;;;;;;66.68;32.40;;;;;;;-0.07;100.00;100828.38;5153745;29;20031;-69
2022/12/10 05:46:14;;;;;;;62.55;31.17;;;;;;;-0.04;100.00;100817.94;5155076;29;20030;-69
2022/12/10 05:48:45;;;;;;;62.53;31.58;;;;;;;-0.08;100.00;100824.09;5152753;29;20035;-68
2022/12/10 05:51:21;;;;;;;69.57;33.55;;;;;;;-0.11;100.00;100823.41;5152992;29;20358;-69
2022/12/10 05:53:53;;;;;;;64.57;32.83;;;;;;;-0.19;100.00;100834.03;5153710;28;20031;-68
2022/12/10 05:56:26;;;;;;;62.43;30.47;;;;;;;-0.18;100.00;100835.69;5154792;29;20373;-68
2022/12/10 05:59:00;;;;;;;65.35;32.30;;;;;;;-0.10;100.00;100841.38;5152528;29;20298;-68
2022/12/10 06:01:34;;;;;;;61.40;31.75;;;;;;;-0.15;100.00;100845.00;5154589;29;20031;-69
2022/12/10 06:04:05;;;;;;;67.00;32.85;;;;;;;-0.16;100.00;100839.03;5154043;28;20090;-68
2022/12/10 06:06:38;;;;;;;65.10;31.02;;;;;;;-0.16;100.00;100836.44;5154407;28;20039;-69
2022/12/10 06:09:12;;;;;;;62.75;31.60;;;;;;;-0.10;100.00;100850.81;5151435;29;20122;-69
2022/12/10 06:11:43;;;;;;;65.88;32.55;;;;;;;-0.15;100.00;100843.28;5153734;29;20105;-69
2022/12/10 06:14:15;;;;;;;63.75;32.10;;;;;;;-0.15;100.00;100847.59;5154240;28;20553;-68
2022/12/10 06:16:46;;;;;;;63.92;31.88;;;;;;;-0.15;100.00;100848.44;5153414;29;20102;-68
2022/12/10 06:19:17;;;;;;;62.85;30.98;;;;;;;-0.14;100.00;100846.69;5154682;29;20027;-68
2022/12/10 06:21:48;;;;;;;65.70;31.85;;;;;;;-0.12;100.00;100852.63;5152495;28;20027;-69
2022/12/10 06:24:20;;;;;;;61.55;31.98;;;;;;;-0.16;100.00;100841.59;5154960;29;20031;-69
2022/12/10 06:26:51;;;;;;;64.57;31.77;;;;;;;-0.21;100.00;100843.53;5151999;29;20077;-68
2022/12/10 06:29:22;;;;;;;64.13;30.92;;;;;;;-0.14;100.00;100850.13;5154439;29;20058;-68
2022/12/10 06:31:53;;;;;;;65.93;31.30;;;;;;;-0.15;100.00;100850.16;5149865;28;20165;-68
2022/12/10 06:34:25;;;;;;;66.82;32.33;;;;;;;-0.16;100.00;100854.47;5153066;28;20050;-68
2022/12/10 06:36:56;;;;;;;61.80;30.58;;;;;;;-0.16;100.00;100851.91;5154093;29;20027;-68
2022/12/10 06:39:27;;;;;;;64.90;31.70;;;;;;;-0.29;100.00;100827.56;5151601;29;20448;-69
2022/12/10 06:41:58;;;;;;;64.63;32.38;;;;;;;-0.14;100.00;100851.84;5150734;29;20468;-69
2022/12/10 06:44:30;;;;;;;66.22;33.40;;;;;;;-0.13;100.00;100854.34;5134089;29;20493;-68
2022/12/10 06:47:01;;;;;;;69.25;35.55;;;;;;;-0.13;100.00;100858.66;5142643;29;20621;-69
2022/12/10 06:49:32;;;;;;;68.90;34.83;;;;;;;-0.11;100.00;100851.72;5140432;29;20034;-69
2022/12/10 06:52:04;;;;;;;66.60;34.95;;;;;;;-0.11;100.00;100862.03;5147085;28;20420;-69
2022/12/10 06:54:35;;;;;;;73.07;34.63;;;;;;;-0.08;100.00;100857.56;5154579;29;20029;-70
2022/12/10 06:57:06;;;;;;;64.28;33.17;;;;;;;-0.08;100.00;100862.72;5151937;29;20510;-69
2022/12/10 06:59:38;;;;;;;69.32;33.22;;;;;;;-0.04;100.00;100874.59;5146557;28;20449;-69
2022/12/10 07:02:10;;;;;;;70.35;34.50;;;;;;;0.05;100.00;100872.56;5147330;28;20508;-69
2022/12/10 07:04:41;;;;;;;64.55;32.38;;;;;;;0.07;100.00;100875.88;5141236;29;20043;-69
2022/12/10 07:07:12;;;;;;;70.75;34.42;;;;;;;0.02;100.00;100878.66;5152047;29;20051;-69
2022/12/10 07:09:43;;;;;;;69.80;36.17;;;;;;;0.08;100.00;100887.88;5151137;29;20042;-69
2022/12/10 07:12:15;;;;;;;74.35;37.92;;;;;;;0.05;100.00;100882.84;5152751;28;20015;-69
2022/12/10 07:14:47;;;;;;;70.80;36.80;;;;;;;0.04;100.00;100879.44;5152307;29;20043;-69
2022/12/10 07:17:18;;;;;;;64.45;35.40;;;;;;;0.03;100.00;100885.47;5136782;29;20024;-69
2022/12/10 07:19:49;;;;;;;66.60;35.35;;;;;;;-0.01;100.00;100877.03;5151616;29;20892;-69
2022/12/10 07:22:20;;;;;;;68.90;35.83;;;;;;;0.04;100.00;100883.72;5153177;28;20492;-69
2022/12/10 07:24:52;;;;;;;67.85;34.80;;;;;;;0.04;100.00;100886.31;5153438;29;20039;-69
2022/12/10 07:27:23;;;;;;;68.75;35.47;;;;;;;0.00;100.00;100893.34;5152932;28;20041;-70
2022/12/10 07:29:54;;;;;;;66.53;36.72;;;;;;;-0.04;100.00;100881.47;5150513;29;20019;-69
2022/12/10 07:32:29;;;;;;;67.03;35.80;;;;;;;0.08;100.00;100891.28;5152987;28;20540;-69
2022/12/10 07:35:00;;;;;;;67.15;34.53;;;;;;;0.01;100.00;100896.75;5152523;29;20167;-69
2022/12/10 07:37:33;;;;;;;76.72;34.97;;;;;;;0.02;100.00;100899.25;5150899;29;20319;-69
2022/12/10 07:40:04;;;;;;;78.22;34.20;;;;;;;-0.06;100.00;100901.31;5153420;29;20362;-69
2022/12/10 07:42:36;;;;;;;66.22;33.25;;;;;;;-0.09;100.00;100904.00;5152496;28;20022;-69
2022/12/10 07:45:08;;;;;;;71.28;32.13;;;;;;;-0.11;100.00;100905.81;5151899;29;20134;-69
2022/12/10 07:47:39;;;;;;;87.78;34.28;;;;;;;-0.11;100.00;100909.22;5152378;29;20031;-69
2022/12/10 07:50:11;;;;;;;68.05;32.72;;;;;;;-0.16;100.00;100898.25;5135809;29;20428;-71
2022/12/10 07:52:42;;;;;;;74.63;34.70;;;;;;;-0.08;100.00;100915.97;5152984;28;20023;-70
2022/12/10 07:55:13;;;;;;;68.30;34.00;;;;;;;-0.08;100.00;100913.38;5151649;28;20040;-69
2022/12/10 07:57:44;;;;;;;94.93;34.53;;;;;;;-0.12;100.00;100910.09;5152838;29;20047;-71
2022/12/10 08:00:16;;;;;;;89.63;33.65;;;;;;;-0.10;100.00;100910.06;5152347;29;20114;-70
2022/12/10 08:02:47;;;;;;;82.85;32.97;;;;;;;-0.09;100.00;100915.13;5150547;28;20023;-69
2022/12/10 08:05:19;;;;;;;91.53;33.15;;;;;;;-0.11;100.00;100913.53;5152771;29;20135;-69
2022/12/10 08:07:50;;;;;;;67.95;32.67;;;;;;;-0.11;100.00;100916.13;5152830;29;20034;-70
2022/12/10 08:10:21;;;;;;;74.40;33.20;;;;;;;-0.11;100.00;100926.41;5153588;28;20081;-69
2022/12/10 08:12:52;;;;;;;88.68;33.90;;;;;;;-0.12;100.00;100925.53;5154887;28;20027;-70
2022/12/10 08:15:24;;;;;;;73.28;32.25;;;;;;;-0.12;100.00;100927.28;5156217;29;20031;-69
2022/12/10 08:17:55;;;;;;;99.32;33.88;;;;;;;-0.16;100.00;100931.72;5155818;29;20043;-69
2022/12/10 08:20:27;;;;;;;58.28;30.92;;;;;;;-0.12;100.00;100922.97;5151168;29;20485;-69
2022/12/10 08:22:58;;;;;;;77.28;34.33;;;;;;;-0.07;100.00;100935.69;5156557;28;20037;-69
2022/12/10 08:25:29;;;;;;;74.95;31.67;;;;;;;-0.05;100.00;100936.44;5153306;29;20499;-71
2022/12/10 08:28:02;;;;;;;80.28;32.03;;;;;;;-0.07;100.00;100930.53;5152966;29;20058;-69
2022/12/10 08:30:34;;;;;;;61.13;30.10;;;;;;;-0.04;100.00;100939.00;5152460;29;20031;-70
2022/12/10 08:33:05;;;;;;;67.85;30.70;;;;;;;-0.06;100.00;100945.09;5173114;23;20412;-68
2022/12/10 08:35:36;;;;;;;62.90;30.92;;;;;;;0.01;100.00;100943.94;5139000;29;20031;-67
2022/12/10 08:38:07;;;;;;;65.90;29.75;;;;;;;0.05;100.00;100945.50;5144265;29;20035;-67
2022/12/10 08:40:40;;;;;;;60.72;30.25;;;;;;;0.08;100.00;100952.28;5144440;29;20031;-68
2022/12/10 08:43:11;;;;;;;86.80;31.90;;;;;;;0.15;100.00;100951.97;5163067;28;20618;-68
2022/12/10 08:45:43;;;;;;;69.15;31.70;;;;;;;0.15;100.00;100951.13;5156259;29;20066;-68
2022/12/10 08:48:23;;;;;;;61.78;29.42;;;;;;;0.23;100.00;100956.81;5152825;29;20034;-68
2022/12/10 08:50:55;;;;;;;70.55;31.67;;;;;;;0.16;100.00;100965.69;5153366;29;20512;-68
2022/12/10 08:53:26;;;;;;;89.30;30.30;;;;;;;0.15;100.00;100967.44;5154010;28;20384;-68
2022/12/10 08:55:57;;;;;;;73.47;29.30;;;;;;;0.13;100.00;100958.09;5153088;29;20050;-68
2022/12/10 08:58:29;;;;;;;61.67;29.27;;;;;;;0.14;100.00;100960.59;5135767;29;20031;-68
2022/12/10 09:01:06;;;;;;;59.55;29.75;;;;;;;0.28;100.00;100964.38;5151637;29;20023;-68
2022/12/10 09:03:37;;;;;;;61.63;30.95;;;;;;;0.23;100.00;100965.38;5149864;28;20050;-68
2022/12/10 09:06:11;;;;;;;63.28;30.60;;;;;;;0.25;100.00;100965.31;5153628;29;20027;-68
2022/12/10 09:08:43;;;;;;;77.78;31.20;;;;;;;0.26;100.00;100973.88;5152795;29;20035;-68
2022/12/10 09:11:18;;;;;;;57.10;30.42;;;;;;;0.34;100.00;100970.13;5154627;29;20046;-68
2022/12/10 09:13:49;;;;;;;66.57;30.45;;;;;;;0.28;100.00;100974.66;5152874;28;20023;-68
2022/12/10 09:16:26;;;;;;;66.07;28.77;;;;;;;0.32;100.00;100976.22;5154905;29;20551;-68
2022/12/10 09:18:58;;;;;;;71.95;30.35;;;;;;;0.26;100.00;100972.13;5154947;29;20425;-68
2022/12/10 09:21:30;;;;;;;55.70;29.17;;;;;;;0.30;100.00;100971.13;5154130;28;20114;-68
2022/12/10 09:24:01;;;;;;;76.00;30.98;;;;;;;0.27;100.00;100976.41;5153013;28;20035;-68
2022/12/10 09:26:33;;;;;;;60.97;26.75;;;;;;;0.23;100.00;100980.00;5154531;29;20392;-68
2022/12/10 09:29:04;;;;;;;60.78;26.33;;;;;;;0.26;100.00;100984.19;5154053;29;20034;-68
2022/12/10 09:31:35;;;;;;;67.40;27.65;;;;;;;0.28;100.00;100979.81;5153880;29;20489;-68
2022/12/10 09:34:07;;;;;;;56.00;26.35;;;;;;;0.29;100.00;100976.34;5151482;28;20508;-68
2022/12/10 09:36:38;;;;;;;63.97;27.98;;;;;;;0.31;100.00;100982.28;5152642;29;20031;-68
2022/12/10 09:39:09;;;;;;;91.47;30.08;;;;;;;0.23;100.00;100987.75;5154402;29;20127;-68
2022/12/10 09:42:02;;;;;;;87.05;29.30;;;;;;;0.29;100.00;100990.06;5154748;29;20046;-68
2022/12/10 09:44:45;;;;;;;66.10;26.17;;;;;;;0.38;100.00;100994.00;5153164;28;20119;-68
2022/12/10 09:47:17;;;;;;;66.53;27.17;;;;;;;0.25;100.00;100996.22;5148609;29;20043;-68
2022/12/10 09:50:18;;;;;;;53.58;26.27;;;;;;;0.41;100.00;100981.00;5150430;29;20039;-68
2022/12/10 09:52:52;;;;;;;60.05;26.75;;;;;;;0.31;100.00;101000.31;5149121;28;20019;-68
2022/12/10 09:55:37;;;;;;;54.03;26.27;;;;;;;0.46;100.00;100997.13;5149666;29;20480;-68
2022/12/10 09:58:16;;;;;;;65.13;26.75;;;;;;;0.37;100.00;100989.75;5150707;28;20050;-69
2022/12/10 10:00:51;;;;;;;57.85;25.90;;;;;;;0.38;100.00;101002.59;5140789;29;20110;-68
2022/12/10 10:03:23;;;;;;;51.05;25.60;;;;;;;0.37;100.00;101003.47;5151217;28;20074;-68
2022/12/10 10:05:56;;;;;;;57.92;27.02;;;;;;;0.39;100.00;100999.09;5152256;29;20505;-68
2022/12/10 10:08:38;;;;;;;51.30;25.50;;;;;;;0.59;100.00;101002.63;5153708;29;20044;-68
2022/12/10 10:11:16;;;;;;;49.13;26.77;;;;;;;0.53;100.00;101011.44;5152431;29;20035;-68
2022/12/10 10:13:59;;;;;;;54.90;27.77;;;;;;;0.59;100.00;101013.75;5153842;28;20035;-68
2022/12/10 10:16:38;;;;;;;47.50;26.38;;;;;;;0.60;100.00;101015.44;5153886;29;20385;-69
2022/12/10 10:19:20;;;;;;;56.92;27.25;;;;;;;0.61;100.00;101022.28;5151217;29;20484;-67
2022/12/10 10:21:52;;;;;;;53.42;26.35;;;;;;;0.51;100.00;101020.97;5154071;29;20048;-69
2022/12/10 10:24:34;;;;;;;55.35;28.30;;;;;;;0.61;100.00;101005.97;5154443;28;20183;-69
2022/12/10 10:27:26;;;;;;;55.83;26.65;;;;;;;0.66;100.00;101016.94;5143014;28;20033;-68
2022/12/10 10:30:01;;;;;;;51.50;26.35;;;;;;;0.57;100.00;101020.72;5139873;29;20038;-68
2022/12/10 10:32:35;;;;;;;59.35;28.40;;;;;;;0.54;100.00;101013.13;5154146;28;20480;-69
2022/12/10 10:35:07;;;;;;;51.50;25.90;;;;;;;0.50;100.00;101021.88;5129398;29;20143;-69
2022/12/10 10:37:42;;;;;;;56.03;27.02;;;;;;;0.58;100.00;101011.25;5146747;29;20542;-69
2022/12/10 10:40:28;;;;;;;55.50;27.00;;;;;;;0.70;100.00;101011.59;5150881;29;20031;-69
2022/12/10 10:43:00;;;;;;;61.15;27.20;;;;;;;0.55;100.00;101017.38;5145380;28;20407;-69
2022/12/10 10:46:02;;;;;;;55.90;27.95;;;;;;;0.73;100.00;101003.72;5152453;29;20094;-69
2022/12/10 10:48:33;;;;;;;65.50;28.95;;;;;;;0.58;100.00;101014.66;5151806;29;20530;-69
2022/12/10 10:51:11;;;;;;;55.38;27.95;;;;;;;0.65;100.00;101015.28;5130414;29;20373;-69
2022/12/10 10:53:49;;;;;;;55.47;27.13;;;;;;;0.68;100.00;101005.66;5146030;28;20031;-69
2022/12/10 10:56:40;;;;;;;49.83;24.85;;;;;;;0.86;100.00;101004.03;5134347;29;20028;-69
2022/12/10 10:59:16;;;;;;;57.92;27.88;;;;;;;0.80;100.00;101008.66;5153902;29;20026;-69
2022/12/10 11:01:51;;;;;;;52.65;26.25;;;;;;;0.67;100.00;100995.41;5151152;29;20144;-69
2022/12/10 11:04:38;;;;;;;56.22;27.45;;;;;;;0.78;100.00;101002.69;5153349;28;20039;-69
2022/12/10 11:07:21;;;;;;;52.25;25.58;;;;;;;0.80;100.00;101004.31;5152629;29;20134;-69
2022/12/10 11:09:54;;;;;;;45.67;24.83;;;;;;;0.80;100.00;101003.50;5152266;29;20038;-69
2022/12/10 11:12:33;;;;;;;49.67;25.40;;;;;;;0.90;100.00;101003.00;5153393;29;20019;-69
2022/12/10 11:15:24;;;;;;;53.50;26.05;;;;;;;0.99;100.00;100991.50;5145121;29;20035;-69
2022/12/10 11:17:57;;;;;;;51.15;25.30;;;;;;;0.70;100.00;100990.97;5150936;29;20038;-69
2022/12/10 11:20:32;;;;;;;48.20;26.55;;;;;;;0.76;100.00;101000.19;5152798;28;20039;-69
2022/12/10 11:23:13;;;;;;;54.13;24.20;;;;;;;0.86;100.00;100986.00;5152872;28;20060;-69
2022/12/10 11:25:53;;;;;;;60.25;28.08;;;;;;;0.88;100.00;100994.53;5153980;29;20042;-69
2022/12/10 11:28:24;;;;;;;52.45;27.08;;;;;;;0.73;100.00;100990.00;5151729;29;20106;-69
2022/12/10 11:31:07;;;;;;;49.27;25.00;;;;;;;0.89;100.00;100985.88;5152958;29;20034;-69
2022/12/10 11:33:49;;;;;;;56.30;28.65;;;;;;;0.89;100.00;100983.28;5152446;28;20301;-69
2022/12/10 11:37:10;;;;;;;47.70;24.67;;;;;;;1.17;100.00;100982.09;5152209;29;20445;-69
2022/12/10 11:39:57;;;;;;;48.83;24.60;;;;;;;1.07;100.00;100984.25;5141130;29;20130;-69
2022/12/10 11:42:39;;;;;;;50.60;25.13;;;;;;;0.93;100.00;100990.00;5151120;29;20082;-70
2022/12/10 11:45:28;;;;;;;54.38;25.15;;;;;;;1.01;100.00;100991.41;5153674;28;20037;-68
2022/12/10 11:48:40;;;;;;;49.08;24.10;;;;;;;0.98;100.00;100994.94;5157410;28;20538;-68
2022/12/10 11:51:35;;;;;;;45.38;23.42;;;;;;;1.01;100.00;100992.25;5113999;29;20047;-68